Agana Heights, GU

2:09 AM ChST on December 28, 2014 (GMT +1000)
Andersen Air Force Base | Change Station
CLOSE
Current Station
Airport
Location: Andersen AFB,
Elevation: 614 ft
Nearby Weather Stations

Elev 614 ft 13.58 °N, 144.93 °E | Updated 10 minutes ago

Mostly Cloudy
Mostly Cloudy
79 °F
Feels Like 79 °F
N
17
Wind Variable Wind from NE

Today
High -- | Low -- °F
--% Chance of Precip.
Yesterday
High -- | Low -- °F
Precip. -- in
6:42 AM 6:02 PM
Waxing Crescent, 38% visible
Pressure 29.85 in
Visibility 10.0 miles
Clouds Mostly Cloudy 500 ft
Mostly Cloudy 900 ft
Mostly Cloudy 2200 ft
Dew Point 75 °F
Humidity 89%
Rainfall 0.00 in
Snow Depth Not available.
UV 0 out of 12
Pollen Not available.
Air Quality Not available.
Flu Activity Not available.
SPECI PGUA 271559Z AUTO 04015KT 10SM BKN005 BKN009 BKN022 26/24 A2985 RMK AO2 RAE1558DZB1558 CIG 005V021 BKN005 V SCT $

More Conditions Fewer Conditions

Pressure 29.85 in
Visibility 10.0 miles
Clouds Mostly Cloudy 500 ft
Mostly Cloudy 900 ft
Mostly Cloudy 2200 ft
Dew Point 75 °F
Humidity 89%
Rainfall 0.00 in
Snow Depth Not available.
UV 0 out of 12
Pollen Not available.
Air Quality Not available.
Flu Activity Not available.
SPECI PGUA 271559Z AUTO 04015KT 10SM BKN005 BKN009 BKN022 26/24 A2985 RMK AO2 RAE1558DZB1558 CIG 005V021 BKN005 V SCT $

More Conditions Fewer Conditions

10-Day Weather Forecast

Almanac

Astronomy

Dec. 28, 2014 Rise Set
Actual Time
Civil Twilight
Nautical Twilight
Astronomical Twilight
Moon
Length of Visible Light
Length of Day
Tomorrow will be .
, % of the Moon is Illuminated

Today's Extremes

State Highs State Lows

Community

WunderPhotos

Upload Photos

1,780,942 photos uploaded!

WunderBlogs® & News

Nearby

Air Quality

  Air Quality AQ Index Pollutant
Not available.

Snow Depth

Station Depth Elevation

Earthquake Activity

City Distance Mag. Time & Date
Minimum magnitude displayed is 2.5.

Coastal Water Temperatures

Place Temperature

Nearby Weather Stations